Time;durP1;ratioP1;P1;durP2;ratioP2;P2;SDS_P1;SDS_P2;PMS_P1;PMS_P2;Temp;Humidity;BMP_temperature;BMP_pressure;BME280_temperature;BME280_humidity;BME280_pressure;Samples;Min_cycle;Max_cycle;Signal;HPM_P1;HPM_P2
2022/10/28 00:02:20;;;;;;;5.15;1.35;;;;;;;;;;5005749;28;20065;-74
2022/10/28 00:04:50;;;;;;;1.95;1.15;;;;;;;;;;5006692;28;20516;-74
2022/10/28 00:07:20;;;;;;;3.53;1.30;;;;;;;;;;5006925;28;20045;-73
2022/10/28 00:09:50;;;;;;;2.53;0.98;;;;;;;;;;5006555;28;20061;-72
2022/10/28 00:12:20;;;;;;;6.60;1.45;;;;;;;;;;5006390;28;20516;-72
2022/10/28 00:14:50;;;;;;;6.95;1.30;;;;;;;;;;5006091;28;20061;-74
2022/10/28 00:17:19;;;;;;;5.00;1.70;;;;;;;;;;5006051;28;20673;-74
2022/10/28 00:19:55;;;;;;;6.53;1.48;;;;;;;;;;5006656;28;20038;-73
2022/10/28 00:22:27;;;;;;;5.15;1.90;;;;;;;;;;5006613;28;20049;-75
2022/10/28 00:24:57;;;;;;;6.88;1.27;;;;;;;;;;5006069;28;20425;-72
2022/10/28 00:27:28;;;;;;;12.68;1.42;;;;;;;;;;5005334;28;20539;-74
2022/10/28 00:29:59;;;;;;;9.50;2.00;;;;;;;;;;5006402;28;20065;-74
2022/10/28 00:32:30;;;;;;;4.88;1.70;;;;;;;;;;5006141;28;20045;-77
2022/10/28 00:35:00;;;;;;;4.35;1.30;;;;;;;;;;5005922;28;20058;-74
2022/10/28 00:37:30;;;;;;;8.68;1.45;;;;;;;;;;4989161;28;20061;-73
2022/10/28 00:39:59;;;;;;;7.80;2.58;;;;;;;;;;5006565;28;20049;-73
2022/10/28 00:42:29;;;;;;;4.72;1.13;;;;;;;;;;5006805;28;20410;-72
2022/10/28 00:45:02;;;;;;;4.63;1.88;;;;;;;;;;5006596;28;20057;-73
2022/10/28 00:47:38;;;;;;;2.60;1.40;;;;;;;;;;4988849;28;20432;-73
2022/10/28 00:50:26;;;;;;;5.53;1.60;;;;;;;;;;5005352;28;20060;-74
2022/10/28 00:53:02;;;;;;;2.30;1.40;;;;;;;;;;5006043;28;20041;-73
2022/10/28 00:55:35;;;;;;;2.08;1.60;;;;;;;;;;5006803;28;20153;-74
2022/10/28 00:58:08;;;;;;;3.05;1.30;;;;;;;;;;5006131;28;20065;-72
2022/10/28 01:00:38;;;;;;;7.32;1.85;;;;;;;;;;5005127;28;20065;-72
2022/10/28 01:03:08;;;;;;;7.78;1.88;;;;;;;;;;5005354;28;20532;-73
2022/10/28 01:05:42;;;;;;;6.53;2.38;;;;;;;;;;5005937;28;20069;-73
2022/10/28 01:08:12;;;;;;;7.65;1.77;;;;;;;;;;5005908;28;20041;-72
2022/10/28 01:11:00;;;;;;;5.25;1.58;;;;;;;;;;5005981;28;20053;-72
2022/10/28 01:13:56;;;;;;;6.07;1.65;;;;;;;;;;5005409;28;20489;-72
2022/10/28 01:16:54;;;;;;;3.22;1.38;;;;;;;;;;5006399;28;20388;-73
2022/10/28 01:19:45;;;;;;;4.20;1.40;;;;;;;;;;5005907;28;20045;-72
2022/10/28 01:22:29;;;;;;;3.92;1.50;;;;;;;;;;5005528;28;20623;-72
2022/10/28 01:25:04;;;;;;;3.97;2.08;;;;;;;;;;5006259;28;20042;-74
2022/10/28 01:27:37;;;;;;;2.85;1.83;;;;;;;;;;5009698;28;20042;-73
2022/10/28 01:30:18;;;;;;;4.65;2.00;;;;;;;;;;5009821;28;20050;-73
2022/10/28 01:32:58;;;;;;;11.25;2.17;;;;;;;;;;5009785;28;20064;-73
2022/10/28 01:35:51;;;;;;;7.05;2.30;;;;;;;;;;5009887;28;20054;-74
2022/10/28 01:38:44;;;;;;;7.18;2.03;;;;;;;;;;5009386;28;20509;-73
2022/10/28 01:41:31;;;;;;;6.30;1.70;;;;;;;;;;5009624;28;20073;-73
2022/10/28 01:44:14;;;;;;;8.65;2.53;;;;;;;;;;5009366;28;20637;-73
2022/10/28 01:47:32;;;;;;;6.35;1.90;;;;;;;;;;4992416;28;20050;-72
2022/10/28 01:50:09;;;;;;;20.38;2.97;;;;;;;;;;4993857;28;20062;-73
2022/10/28 01:52:40;;;;;;;21.48;3.45;;;;;;;;;;5010003;28;20050;-73
2022/10/28 01:55:24;;;;;;;9.68;2.22;;;;;;;;;;5009380;28;20050;-73
2022/10/28 01:57:57;;;;;;;15.20;2.78;;;;;;;;;;5009159;28;20045;-73
2022/10/28 02:00:28;;;;;;;10.77;2.70;;;;;;;;;;5008816;28;20050;-72
2022/10/28 02:02:59;;;;;;;10.45;2.53;;;;;;;;;;5008533;28;20065;-74
2022/10/28 02:05:40;;;;;;;13.30;2.40;;;;;;;;;;5008884;28;20058;-72
2022/10/28 02:08:14;;;;;;;;;;;;;;;;;;5009308;28;20050;-72
2022/10/28 02:11:00;;;;;;;11.15;2.58;;;;;;;;;;5009060;28;19925;-73
2022/10/28 02:13:43;;;;;;;6.82;2.72;;;;;;;;;;5008830;28;20050;-71
2022/10/28 02:16:22;;;;;;;5.63;2.80;;;;;;;;;;5008901;28;20049;-73
2022/10/28 02:19:14;;;;;;;4.50;2.00;;;;;;;;;;4991809;28;20509;-73
2022/10/28 02:21:44;;;;;;;4.15;2.00;;;;;;;;;;5008357;28;20046;-73
2022/10/28 02:24:22;;;;;;;6.25;2.53;;;;;;;;;;5009112;28;20046;-72
2022/10/28 02:27:08;;;;;;;7.05;2.42;;;;;;;;;;5008088;28;20057;-72
2022/10/28 02:29:53;;;;;;;5.45;2.05;;;;;;;;;;5008271;28;20202;-74
2022/10/28 02:32:28;;;;;;;5.50;2.60;;;;;;;;;;5008496;28;20080;-74
2022/10/28 02:35:00;;;;;;;9.70;2.60;;;;;;;;;;5007929;28;20073;-72
2022/10/28 02:37:33;;;;;;;5.55;2.50;;;;;;;;;;5007358;28;20060;-74
2022/10/28 02:40:08;;;;;;;7.90;2.63;;;;;;;;;;5008862;28;20088;-72
2022/10/28 02:42:48;;;;;;;7.03;2.35;;;;;;;;;;5008406;28;20054;-73
2022/10/28 02:45:26;;;;;;;8.30;2.53;;;;;;;;;;5008150;28;20053;-73
2022/10/28 02:48:04;;;;;;;9.38;2.15;;;;;;;;;;5007878;28;20057;-73
2022/10/28 02:50:38;;;;;;;6.90;2.40;;;;;;;;;;5007832;28;20501;-73
2022/10/28 02:53:23;;;;;;;10.68;2.50;;;;;;;;;;5007971;28;20053;-72
2022/10/28 02:55:59;;;;;;;7.10;2.30;;;;;;;;;;5007570;28;20038;-73
2022/10/28 02:58:36;;;;;;;7.15;2.33;;;;;;;;;;5007707;28;20061;-73
2022/10/28 03:01:07;;;;;;;5.00;2.25;;;;;;;;;;4991889;28;20068;-72
2022/10/28 03:03:37;;;;;;;9.02;2.60;;;;;;;;;;5007750;28;20038;-73
2022/10/28 03:06:08;;;;;;;4.80;2.55;;;;;;;;;;5007416;28;20050;-73
2022/10/28 03:08:37;;;;;;;4.03;1.98;;;;;;;;;;5007905;28;20054;-72
2022/10/28 03:11:07;;;;;;;3.83;2.30;;;;;;;;;;5008131;28;20049;-73
2022/10/28 03:13:37;;;;;;;4.93;2.08;;;;;;;;;;5007708;28;20092;-71
2022/10/28 03:16:07;;;;;;;11.48;2.58;;;;;;;;;;5007835;28;20046;-72
2022/10/28 03:18:37;;;;;;;6.25;2.50;;;;;;;;;;5007058;28;20049;-72
2022/10/28 03:21:07;;;;;;;2.58;1.70;;;;;;;;;;5007291;28;20398;-73
2022/10/28 03:23:36;;;;;;;5.15;2.50;;;;;;;;;;4990100;28;20054;-73
2022/10/28 03:26:06;;;;;;;5.07;1.92;;;;;;;;;;5007770;28;20045;-72
2022/10/28 03:28:36;;;;;;;3.40;2.00;;;;;;;;;;5007572;28;20057;-73
2022/10/28 03:31:05;;;;;;;6.07;2.10;;;;;;;;;;5007118;28;20061;-73
2022/10/28 03:33:35;;;;;;;4.50;2.10;;;;;;;;;;4990612;28;20497;-73
2022/10/28 03:36:06;;;;;;;6.35;1.98;;;;;;;;;;4989572;28;20061;-73
2022/10/28 03:38:35;;;;;;;6.35;1.88;;;;;;;;;;5007478;28;20045;-72
2022/10/28 03:41:05;;;;;;;3.22;2.05;;;;;;;;;;5007404;28;20057;-73
2022/10/28 03:43:35;;;;;;;4.40;1.73;;;;;;;;;;5006641;28;20829;-73
2022/10/28 03:46:05;;;;;;;2.95;1.63;;;;;;;;;;5007031;28;20420;-72
2022/10/28 03:48:34;;;;;;;4.15;2.10;;;;;;;;;;5007087;28;20508;-74
2022/10/28 03:51:05;;;;;;;5.35;1.95;;;;;;;;;;5006969;28;20054;-76
2022/10/28 03:53:34;;;;;;;5.72;2.03;;;;;;;;;;5007192;28;20049;-72
2022/10/28 03:56:05;;;;;;;5.00;2.22;;;;;;;;;;5007015;28;20064;-73
2022/10/28 03:58:34;;;;;;;3.80;1.63;;;;;;;;;;5007821;28;20050;-73
2022/10/28 04:01:09;;;;;;;4.53;1.70;;;;;;;;;;5006939;28;20047;-73
2022/10/28 04:03:39;;;;;;;8.07;1.98;;;;;;;;;;5006802;28;20057;-72
2022/10/28 04:06:09;;;;;;;4.38;2.10;;;;;;;;;;5006778;28;20061;-73
2022/10/28 04:08:38;;;;;;;6.55;1.88;;;;;;;;;;5006609;28;20058;-72
2022/10/28 04:11:08;;;;;;;4.85;2.92;;;;;;;;;;4989152;28;20061;-73
2022/10/28 04:13:38;;;;;;;5.35;2.22;;;;;;;;;;5006911;28;20068;-72
2022/10/28 04:16:07;;;;;;;4.38;2.10;;;;;;;;;;4989479;28;20057;-73
2022/10/28 04:18:37;;;;;;;3.00;1.75;;;;;;;;;;5006507;28;20050;-72
2022/10/28 04:21:07;;;;;;;2.67;1.73;;;;;;;;;;5006493;28;20050;-73
2022/10/28 04:23:37;;;;;;;5.22;1.85;;;;;;;;;;5006989;28;20595;-73
2022/10/28 04:26:07;;;;;;;4.13;1.60;;;;;;;;;;5006247;28;20068;-73
2022/10/28 04:28:36;;;;;;;5.38;2.20;;;;;;;;;;5006589;28;20988;-73
2022/10/28 04:31:06;;;;;;;3.47;1.92;;;;;;;;;;5006335;28;20046;-73
2022/10/28 04:33:36;;;;;;;5.38;1.60;;;;;;;;;;5006196;28;20072;-73
2022/10/28 04:36:06;;;;;;;5.18;1.70;;;;;;;;;;4989277;28;20053;-72
2022/10/28 04:38:35;;;;;;;8.35;1.60;;;;;;;;;;5006857;28;20042;-72
2022/10/28 04:41:05;;;;;;;4.45;1.50;;;;;;;;;;5006438;28;20053;-72
2022/10/28 04:43:35;;;;;;;6.57;2.05;;;;;;;;;;5006452;28;20054;-72
2022/10/28 04:46:05;;;;;;;3.85;1.70;;;;;;;;;;5006184;28;20054;-73
2022/10/28 04:48:35;;;;;;;4.85;2.03;;;;;;;;;;5006884;28;20764;-72
2022/10/28 04:51:05;;;;;;;4.75;1.83;;;;;;;;;;5006510;28;20050;-73
2022/10/28 04:53:34;;;;;;;4.10;1.70;;;;;;;;;;5006372;28;20038;-73
2022/10/28 04:56:04;;;;;;;6.10;2.10;;;;;;;;;;5006615;28;20046;-72
2022/10/28 04:58:34;;;;;;;4.35;1.70;;;;;;;;;;5006135;28;20117;-71
2022/10/28 05:01:08;;;;;;;5.18;2.03;;;;;;;;;;5008486;28;20497;-73
2022/10/28 05:03:38;;;;;;;5.88;1.42;;;;;;;;;;5010015;28;20413;-72
2022/10/28 05:06:08;;;;;;;3.20;1.85;;;;;;;;;;5010048;28;20076;-73
2022/10/28 05:08:38;;;;;;;2.80;1.42;;;;;;;;;;5010363;28;20065;-73
2022/10/28 05:11:07;;;;;;;4.00;1.30;;;;;;;;;;5010396;28;20543;-72
2022/10/28 05:13:37;;;;;;;5.35;1.50;;;;;;;;;;5009963;28;20050;-73
2022/10/28 05:16:07;;;;;;;6.20;1.70;;;;;;;;;;5009659;28;20049;-73
2022/10/28 05:18:38;;;;;;;4.60;1.42;;;;;;;;;;5009954;28;20413;-73
2022/10/28 05:21:09;;;;;;;4.10;1.38;;;;;;;;;;5010735;28;20054;-71
2022/10/28 05:23:39;;;;;;;2.35;1.00;;;;;;;;;;5009542;28;20053;-73
2022/10/28 05:26:08;;;;;;;3.83;1.40;;;;;;;;;;5009888;28;20493;-72
2022/10/28 05:28:38;;;;;;;2.38;1.35;;;;;;;;;;5010036;28;20060;-72
2022/10/28 05:31:09;;;;;;;7.47;1.52;;;;;;;;;;5009838;28;20428;-73
2022/10/28 05:33:39;;;;;;;2.13;1.00;;;;;;;;;;5009593;28;20050;-73
2022/10/28 05:36:08;;;;;;;;;;;;;;;;;;5010430;28;20054;-72
2022/10/28 05:38:39;;;;;;;4.45;1.15;;;;;;;;;;5009435;28;19928;-73
2022/10/28 05:41:09;;;;;;;1.33;1.13;;;;;;;;;;5009423;28;20386;-73
2022/10/28 05:43:38;;;;;;;2.78;1.05;;;;;;;;;;5008674;28;20584;-73
2022/10/28 05:46:09;;;;;;;1.45;0.90;;;;;;;;;;5009789;28;20057;-73
2022/10/28 05:48:38;;;;;;;4.07;1.15;;;;;;;;;;5008584;28;20531;-73
2022/10/28 05:51:08;;;;;;;2.13;1.00;;;;;;;;;;5009709;28;20121;-73
2022/10/28 05:53:40;;;;;;;2.67;1.15;;;;;;;;;;5009234;28;20540;-72
2022/10/28 05:56:10;;;;;;;1.92;1.20;;;;;;;;;;5009594;28;20050;-72
2022/10/28 05:58:40;;;;;;;1.75;1.00;;;;;;;;;;5009350;28;20052;-73
2022/10/28 06:01:10;;;;;;;3.45;1.40;;;;;;;;;;4992118;28;20046;-73
2022/10/28 06:03:40;;;;;;;2.40;0.98;;;;;;;;;;5009075;28;20053;-71
2022/10/28 06:06:10;;;;;;;3.35;1.00;;;;;;;;;;5009142;28;20497;-72
2022/10/28 06:08:40;;;;;;;4.93;1.17;;;;;;;;;;5008545;28;20066;-73
2022/10/28 06:11:09;;;;;;;2.03;1.00;;;;;;;;;;5008544;28;20050;-73
2022/10/28 06:13:39;;;;;;;1.20;1.02;;;;;;;;;;5008102;28;20045;-72
2022/10/28 06:16:09;;;;;;;3.05;1.05;;;;;;;;;;5008814;28;20049;-73
2022/10/28 06:18:40;;;;;;;2.00;1.20;;;;;;;;;;5009036;28;20057;-72
2022/10/28 06:21:09;;;;;;;1.60;1.13;;;;;;;;;;5009087;28;20049;-72
2022/10/28 06:23:39;;;;;;;4.60;1.48;;;;;;;;;;5007201;28;20072;-73
2022/10/28 06:26:09;;;;;;;3.47;1.30;;;;;;;;;;4991413;28;21145;-72
2022/10/28 06:28:38;;;;;;;3.67;1.58;;;;;;;;;;5008648;28;20053;-73
2022/10/28 06:31:09;;;;;;;3.00;1.60;;;;;;;;;;5007484;28;20054;-71
2022/10/28 06:33:39;;;;;;;7.50;1.50;;;;;;;;;;5008715;28;20053;-72
2022/10/28 06:36:09;;;;;;;2.97;1.67;;;;;;;;;;5008586;28;20057;-73
2022/10/28 06:38:39;;;;;;;2.50;1.33;;;;;;;;;;5008085;28;20054;-72
2022/10/28 06:41:10;;;;;;;4.15;1.73;;;;;;;;;;5008254;28;20046;-72
2022/10/28 06:43:39;;;;;;;3.55;1.13;;;;;;;;;;5008073;28;20042;-71
2022/10/28 06:46:10;;;;;;;3.33;1.48;;;;;;;;;;5008262;28;20058;-72
2022/10/28 06:48:40;;;;;;;2.85;1.42;;;;;;;;;;4991145;28;20073;-73
2022/10/28 06:51:10;;;;;;;4.15;1.40;;;;;;;;;;5008411;28;20382;-71
2022/10/28 06:53:40;;;;;;;3.17;1.38;;;;;;;;;;5007914;28;20398;-72
2022/10/28 06:56:09;;;;;;;;;;;;;;;;;;5008547;28;20049;-71
2022/10/28 06:58:39;;;;;;;2.78;1.33;;;;;;;;;;5007960;28;20304;-73
2022/10/28 07:01:09;;;;;;;3.33;1.38;;;;;;;;;;5007770;28;20441;-72
2022/10/28 07:03:40;;;;;;;2.67;1.60;;;;;;;;;;5007738;28;20053;-71
2022/10/28 07:06:10;;;;;;;2.40;1.30;;;;;;;;;;5008007;28;20073;-72
2022/10/28 07:08:45;;;;;;;3.28;1.70;;;;;;;;;;5007595;28;20065;-72
2022/10/28 07:11:15;;;;;;;7.60;1.67;;;;;;;;;;5007867;28;20428;-73
2022/10/28 07:13:44;;;;;;;;;;;;;;;;;;5008117;28;20049;-72
2022/10/28 07:16:16;;;;;;;5.63;1.50;;;;;;;;;;5007978;28;19932;-74
2022/10/28 07:18:46;;;;;;;7.30;1.77;;;;;;;;;;5006824;28;20041;-72
2022/10/28 07:21:17;;;;;;;4.55;1.58;;;;;;;;;;5007687;28;20038;-72
2022/10/28 07:23:48;;;;;;;2.35;1.48;;;;;;;;;;5007031;28;20049;-72
2022/10/28 07:26:19;;;;;;;3.92;1.63;;;;;;;;;;5007827;28;20042;-71
2022/10/28 07:28:48;;;;;;;3.33;1.48;;;;;;;;;;5007090;28;20049;-73
2022/10/28 07:31:19;;;;;;;4.53;1.40;;;;;;;;;;5007322;28;20054;-73
2022/10/28 07:33:53;;;;;;;1.70;1.13;;;;;;;;;;5007343;28;20171;-72
2022/10/28 07:36:23;;;;;;;3.42;1.45;;;;;;;;;;5007427;28;20054;-72
2022/10/28 07:38:54;;;;;;;2.08;1.25;;;;;;;;;;5007329;28;20077;-72
2022/10/28 07:41:24;;;;;;;;;;;;;;;;;;5007904;28;20050;-72
2022/10/28 07:43:54;;;;;;;5.85;1.60;;;;;;;;;;5007564;28;19932;-72
2022/10/28 07:46:23;;;;;;;;;;;;;;;;;;4991463;28;20045;-73
2022/10/28 07:48:52;;;;;;;2.35;1.40;;;;;;;;;;5007435;28;19933;-72
2022/10/28 07:51:22;;;;;;;2.92;1.33;;;;;;;;;;5006928;28;20068;-73
2022/10/28 07:53:52;;;;;;;2.53;1.52;;;;;;;;;;5006934;28;20046;-72
2022/10/28 07:56:22;;;;;;;3.35;1.40;;;;;;;;;;5006668;28;20057;-72
2022/10/28 07:58:52;;;;;;;5.25;2.38;;;;;;;;;;5006877;28;20050;-72
2022/10/28 08:01:22;;;;;;;2.17;1.60;;;;;;;;;;5006765;28;20042;-72
2022/10/28 08:03:52;;;;;;;4.35;1.75;;;;;;;;;;5006849;28;20050;-72
2022/10/28 08:06:22;;;;;;;3.65;1.80;;;;;;;;;;5007198;28;20045;-72
2022/10/28 08:08:54;;;;;;;;;;;;;;;;;;5006981;28;20054;-71
2022/10/28 08:11:24;;;;;;;5.93;1.60;;;;;;;;;;5006513;28;19936;-72
2022/10/28 08:13:54;;;;;;;4.38;1.60;;;;;;;;;;5006851;28;20058;-72
2022/10/28 08:16:27;;;;;;;2.70;1.63;;;;;;;;;;5006837;28;20052;-72
2022/10/28 08:18:57;;;;;;;3.42;1.52;;;;;;;;;;5006586;28;20046;-72
2022/10/28 08:21:33;;;;;;;3.38;1.45;;;;;;;;;;5006767;28;20049;-72
2022/10/28 08:24:02;;;;;;;;;;;;;;;;;;5007155;28;20432;-73
2022/10/28 08:26:32;;;;;;;2.75;1.40;;;;;;;;;;5006994;28;19925;-72
2022/10/28 08:29:02;;;;;;;3.15;1.20;;;;;;;;;;5007017;28;20054;-73
2022/10/28 08:31:33;;;;;;;2.40;1.40;;;;;;;;;;5006096;28;20761;-72
2022/10/28 08:34:03;;;;;;;2.75;1.80;;;;;;;;;;5006456;28;20053;-72
2022/10/28 08:36:33;;;;;;;2.88;1.48;;;;;;;;;;5006435;28;20050;-72
2022/10/28 08:39:03;;;;;;;4.97;1.73;;;;;;;;;;4988409;28;20429;-72
2022/10/28 08:41:46;;;;;;;3.38;1.88;;;;;;;;;;5006592;28;20413;-72
2022/10/28 08:44:37;;;;;;;3.42;1.73;;;;;;;;;;5006341;28;20049;-72
2022/10/28 08:47:22;;;;;;;5.13;1.92;;;;;;;;;;5006282;28;20497;-72
2022/10/28 08:50:02;;;;;;;4.10;1.70;;;;;;;;;;5006215;28;20371;-72
2022/10/28 08:52:52;;;;;;;2.75;1.60;;;;;;;;;;5006601;28;20054;-71
2022/10/28 08:55:28;;;;;;;2.95;1.85;;;;;;;;;;5006745;28;20057;-71
2022/10/28 08:58:11;;;;;;;6.88;1.73;;;;;;;;;;5006247;28;20532;-72
2022/10/28 09:00:46;;;;;;;3.10;1.80;;;;;;;;;;4989457;28;20038;-72
2022/10/28 09:03:21;;;;;;;4.30;1.98;;;;;;;;;;5006475;28;20057;-72
2022/10/28 09:06:15;;;;;;;2.67;1.73;;;;;;;;;;5006271;28;20042;-71
2022/10/28 09:08:48;;;;;;;14.23;2.60;;;;;;;;;;5005797;28;20046;-80
2022/10/28 09:11:36;;;;;;;3.80;2.22;;;;;;;;;;5006052;28;20048;-71
2022/10/28 09:14:18;;;;;;;11.18;2.47;;;;;;;;;;4988836;28;20065;-79
2022/10/28 09:16:57;;;;;;;5.22;2.28;;;;;;;;;;5006037;28;20096;-72
2022/10/28 09:19:36;;;;;;;6.45;1.80;;;;;;;;;;5006390;28;20053;-72
2022/10/28 09:22:26;;;;;;;2.85;1.77;;;;;;;;;;5005961;28;20053;-72
2022/10/28 09:25:09;;;;;;;4.05;2.00;;;;;;;;;;5006069;28;20057;-72
2022/10/28 09:27:48;;;;;;;4.85;2.13;;;;;;;;;;5006071;28;20046;-72
2022/10/28 09:30:42;;;;;;;3.80;1.70;;;;;;;;;;5006384;28;20054;-73
2022/10/28 09:33:37;;;;;;;11.98;2.38;;;;;;;;;;5006129;28;20050;-72
2022/10/28 09:36:16;;;;;;;4.32;2.00;;;;;;;;;;4988271;28;20050;-72
2022/10/28 09:38:47;;;;;;;6.53;2.13;;;;;;;;;;5005882;28;20544;-73
2022/10/28 09:41:24;;;;;;;3.83;1.95;;;;;;;;;;5006034;28;20413;-73
2022/10/28 09:44:13;;;;;;;6.60;1.92;;;;;;;;;;4988272;28;20433;-73
2022/10/28 09:46:49;;;;;;;5.95;2.20;;;;;;;;;;5007064;28;20073;-72
2022/10/28 09:49:31;;;;;;;7.00;2.40;;;;;;;;;;4992293;28;20042;-72
2022/10/28 09:52:07;;;;;;;5.03;1.70;;;;;;;;;;5009217;28;20042;-73
2022/10/28 09:54:51;;;;;;;6.00;1.67;;;;;;;;;;5009201;28;20046;-77
2022/10/28 09:57:26;;;;;;;4.10;1.55;;;;;;;;;;5009000;28;20436;-73
2022/10/28 09:59:57;;;;;;;6.70;1.33;;;;;;;;;;5008859;28;20064;-72
2022/10/28 10:02:30;;;;;;;6.57;1.70;;;;;;;;;;5008997;28;20512;-74
2022/10/28 10:05:02;;;;;;;6.30;2.08;;;;;;;;;;5008758;28;20057;-73
2022/10/28 10:07:39;;;;;;;7.75;1.63;;;;;;;;;;5009490;28;20052;-75
2022/10/28 10:10:22;;;;;;;1.95;1.33;;;;;;;;;;5008892;28;20069;-73
2022/10/28 10:12:57;;;;;;;6.38;1.70;;;;;;;;;;5008823;28;20046;-73
2022/10/28 10:15:32;;;;;;;2.83;1.55;;;;;;;;;;5009090;28;20421;-74
2022/10/28 10:18:05;;;;;;;8.05;3.20;;;;;;;;;;5008831;28;20107;-74
2022/10/28 10:20:52;;;;;;;6.68;2.20;;;;;;;;;;5009223;28;20057;-74
2022/10/28 10:23:22;;;;;;;2.90;1.23;;;;;;;;;;5008650;28;20065;-73
2022/10/28 10:26:03;;;;;;;2.45;1.52;;;;;;;;;;5008209;28;20057;-74
2022/10/28 10:28:47;;;;;;;6.50;1.83;;;;;;;;;;5008866;28;20413;-73
2022/10/28 10:31:24;;;;;;;5.68;1.45;;;;;;;;;;5009188;28;20038;-73
2022/10/28 10:33:58;;;;;;;6.32;1.58;;;;;;;;;;5008268;28;20217;-73
2022/10/28 10:36:30;;;;;;;3.05;1.13;;;;;;;;;;5008888;28;20054;-76
2022/10/28 10:39:02;;;;;;;6.20;1.40;;;;;;;;;;5007999;28;20065;-73
2022/10/28 10:41:43;;;;;;;6.47;1.10;;;;;;;;;;5007917;28;20052;-74
2022/10/28 10:44:22;;;;;;;8.80;1.80;;;;;;;;;;5008183;28;20634;-73
2022/10/28 10:46:59;;;;;;;3.88;1.80;;;;;;;;;;5008146;28;20034;-76
2022/10/28 10:49:35;;;;;;;2.80;1.23;;;;;;;;;;5007775;28;20061;-72
2022/10/28 10:52:24;;;;;;;7.03;1.90;;;;;;;;;;5007906;28;20053;-74
2022/10/28 10:55:04;;;;;;;8.57;1.70;;;;;;;;;;5007302;28;20489;-74
2022/10/28 10:57:34;;;;;;;4.85;1.30;;;;;;;;;;5007967;28;20060;-74
2022/10/28 11:00:05;;;;;;;7.93;1.67;;;;;;;;;;5008094;28;20053;-73
2022/10/28 11:02:39;;;;;;;8.63;2.25;;;;;;;;;;5008099;28;20117;-74
2022/10/28 11:05:10;;;;;;;7.60;3.67;;;;;;;;;;5007877;28;20045;-74
2022/10/28 11:07:47;;;;;;;13.05;6.72;;;;;;;;;;5008256;28;20522;-74
2022/10/28 11:10:29;;;;;;;23.65;10.50;;;;;;;;;;5008063;28;20417;-73
2022/10/28 11:13:24;;;;;;;25.70;13.40;;;;;;;;;;5007847;28;20045;-75
2022/10/28 11:16:07;;;;;;;25.85;10.20;;;;;;;;;;5007550;28;20058;-74
2022/10/28 11:18:42;;;;;;;16.92;7.63;;;;;;;;;;5007274;28;20042;-74
2022/10/28 11:21:21;;;;;;;15.32;5.38;;;;;;;;;;5007655;28;20077;-73
2022/10/28 11:23:54;;;;;;;13.55;4.78;;;;;;;;;;5007590;28;20046;-74
2022/10/28 11:26:25;;;;;;;6.78;2.90;;;;;;;;;;5007711;28;20418;-74
2022/10/28 11:29:27;;;;;;;8.23;2.78;;;;;;;;;;5008648;28;20057;-74
2022/10/28 11:32:15;;;;;;;5.15;1.77;;;;;;;;;;4975944;28;20521;-74
2022/10/28 11:34:57;;;;;;;7.82;2.63;;;;;;;;;;5007587;28;20053;-76
2022/10/28 11:37:43;;;;;;;6.82;2.15;;;;;;;;;;5006529;28;20056;-74
2022/10/28 11:40:39;;;;;;;5.95;2.13;;;;;;;;;;5006536;28;20042;-76
2022/10/28 11:43:33;;;;;;;9.85;2.17;;;;;;;;;;5006701;28;20046;-74
2022/10/28 11:46:31;;;;;;;9.75;6.15;;;;;;;;;;4989206;28;20054;-75
2022/10/28 11:49:25;;;;;;;9.10;2.25;;;;;;;;;;5006857;28;20409;-75
2022/10/28 11:52:15;;;;;;;5.50;2.00;;;;;;;;;;5007710;28;20071;-74
2022/10/28 11:54:54;;;;;;;7.88;2.70;;;;;;;;;;5007082;28;20053;-74
2022/10/28 11:57:34;;;;;;;7.40;2.70;;;;;;;;;;5006984;28;20037;-75
2022/10/28 12:00:28;;;;;;;5.20;2.20;;;;;;;;;;5006895;28;20053;-75
2022/10/28 12:03:20;;;;;;;6.03;2.05;;;;;;;;;;5006945;28;20076;-74
2022/10/28 12:06:07;;;;;;;4.47;1.75;;;;;;;;;;5006760;28;20153;-74
2022/10/28 12:08:37;;;;;;;4.95;1.50;;;;;;;;;;5006580;28;20497;-74
2022/10/28 12:11:20;;;;;;;1.27;1.00;;;;;;;;;;5005991;28;20046;-74
2022/10/28 12:14:17;;;;;;;2.63;1.10;;;;;;;;;;5007044;28;20037;-76
2022/10/28 12:17:20;;;;;;;2.88;1.13;;;;;;;;;;5007505;28;20056;-74
2022/10/28 12:20:00;;;;;;;3.47;2.13;;;;;;;;;;4996793;28;20061;-78
2022/10/28 12:22:45;;;;;;;2.35;1.00;;;;;;;;;;5007406;28;20053;-76
2022/10/28 12:25:22;;;;;;;2.28;1.00;;;;;;;;;;5007000;28;20048;-74
2022/10/28 12:28:01;;;;;;;3.60;1.30;;;;;;;;;;5006413;28;20049;-73
2022/10/28 12:30:40;;;;;;;4.10;1.10;;;;;;;;;;5006615;28;20053;-75
2022/10/28 12:33:45;;;;;;;5.53;1.13;;;;;;;;;;5006520;28;20054;-74
2022/10/28 12:36:27;;;;;;;4.78;1.15;;;;;;;;;;4986570;28;20528;-75
2022/10/28 12:39:11;;;;;;;1.70;0.98;;;;;;;;;;5007075;28;20596;-75
2022/10/28 12:42:05;;;;;;;3.97;1.20;;;;;;;;;;5006560;28;20053;-74
2022/10/28 12:44:38;;;;;;;3.55;1.25;;;;;;;;;;5006591;28;20097;-75
2022/10/28 12:47:16;;;;;;;3.20;1.02;;;;;;;;;;5006717;28;20535;-75
2022/10/28 12:50:07;;;;;;;4.53;1.08;;;;;;;;;;5006246;28;20076;-73
2022/10/28 12:53:14;;;;;;;5.22;1.40;;;;;;;;;;5005995;28;20045;-76
2022/10/28 12:56:34;;;;;;;5.53;1.40;;;;;;;;;;5006021;28;20880;-78
2022/10/28 12:59:16;;;;;;;2.85;1.02;;;;;;;;;;4991339;28;20505;-76
2022/10/28 13:01:50;;;;;;;4.70;2.38;;;;;;;;;;5006591;28;20050;-74
2022/10/28 13:04:20;;;;;;;2.45;1.00;;;;;;;;;;5006674;28;20049;-74
2022/10/28 13:07:08;;;;;;;5.30;1.30;;;;;;;;;;5006470;28;20497;-75
2022/10/28 13:09:41;;;;;;;2.58;1.70;;;;;;;;;;5006647;28;20057;-75
2022/10/28 13:12:36;;;;;;;3.10;1.13;;;;;;;;;;5006615;28;20046;-75
2022/10/28 13:15:36;;;;;;;3.10;1.05;;;;;;;;;;5005405;28;20050;-74
2022/10/28 13:18:26;;;;;;;1.98;0.98;;;;;;;;;;5006243;28;20056;-72
2022/10/28 13:21:18;;;;;;;2.53;1.40;;;;;;;;;;5006492;28;20045;-73
2022/10/28 13:24:00;;;;;;;5.15;1.70;;;;;;;;;;5009757;28;20046;-72
2022/10/28 13:26:36;;;;;;;4.82;1.33;;;;;;;;;;5010020;28;20048;-74
2022/10/28 13:29:17;;;;;;;5.82;1.30;;;;;;;;;;5010059;28;20500;-72
2022/10/28 13:31:47;;;;;;;3.05;1.50;;;;;;;;;;5010293;28;20060;-76
2022/10/28 13:34:21;;;;;;;2.00;1.13;;;;;;;;;;5009304;28;20042;-74
2022/10/28 13:37:02;;;;;;;3.53;1.30;;;;;;;;;;5009609;28;20061;-74
2022/10/28 13:39:46;;;;;;;3.97;1.67;;;;;;;;;;5009150;28;20054;-74
2022/10/28 13:42:18;;;;;;;2.80;1.45;;;;;;;;;;5009379;28;20528;-77
2022/10/28 13:45:03;;;;;;;3.53;1.48;;;;;;;;;;5009540;28;20077;-78
2022/10/28 13:47:37;;;;;;;6.80;2.10;;;;;;;;;;4991979;28;20528;-74
2022/10/28 13:50:15;;;;;;;2.55;1.63;;;;;;;;;;5009129;28;20384;-75
2022/10/28 13:52:46;;;;;;;5.07;1.48;;;;;;;;;;5010162;28;20049;-75
2022/10/28 13:55:26;;;;;;;4.60;1.33;;;;;;;;;;5009061;28;20053;-75
2022/10/28 13:58:18;;;;;;;3.45;1.45;;;;;;;;;;5009402;28;20050;-74
2022/10/28 14:00:48;;;;;;;4.68;1.55;;;;;;;;;;5009292;28;20389;-75
2022/10/28 14:03:24;;;;;;;3.92;1.27;;;;;;;;;;5009130;28;20509;-77
2022/10/28 14:05:59;;;;;;;3.38;1.23;;;;;;;;;;5009802;28;20053;-76
2022/10/28 14:08:32;;;;;;;3.20;1.35;;;;;;;;;;5008932;28;20044;-74
2022/10/28 14:11:21;;;;;;;4.07;1.52;;;;;;;;;;5008871;28;20827;-75
2022/10/28 14:13:55;;;;;;;2.78;1.40;;;;;;;;;;5007416;28;20037;-74
2022/10/28 14:16:26;;;;;;;5.75;1.85;;;;;;;;;;5008711;28;20093;-74
2022/10/28 14:19:05;;;;;;;5.85;2.15;;;;;;;;;;5009408;28;20048;-76
2022/10/28 14:21:45;;;;;;;3.50;1.75;;;;;;;;;;5009169;28;20050;-75
2022/10/28 14:24:40;;;;;;;3.58;2.35;;;;;;;;;;5008171;28;20510;-74
2022/10/28 14:27:14;;;;;;;5.22;1.70;;;;;;;;;;4990580;28;20543;-74
2022/10/28 14:29:46;;;;;;;4.55;1.30;;;;;;;;;;5008491;28;20053;-72
2022/10/28 14:32:31;;;;;;;4.32;1.23;;;;;;;;;;5008087;28;20049;-77
2022/10/28 14:35:24;;;;;;;2.75;1.17;;;;;;;;;;5008428;28;20050;-74
2022/10/28 14:38:13;;;;;;;4.18;1.60;;;;;;;;;;5007739;28;20531;-74
2022/10/28 14:40:43;;;;;;;6.97;1.67;;;;;;;;;;5008862;28;20042;-75
2022/10/28 14:43:31;;;;;;;4.97;1.58;;;;;;;;;;5008730;28;20053;-74
2022/10/28 14:46:10;;;;;;;3.67;1.15;;;;;;;;;;5008179;28;20056;-74
2022/10/28 14:48:49;;;;;;;6.55;1.00;;;;;;;;;;5008030;28;20046;-75
2022/10/28 14:51:25;;;;;;;1.83;1.10;;;;;;;;;;4990725;28;20054;-74
2022/10/28 14:54:00;;;;;;;2.95;0.93;;;;;;;;;;5008197;28;20049;-76
2022/10/28 14:56:31;;;;;;;1.70;1.20;;;;;;;;;;4989905;28;20053;-75
2022/10/28 14:59:23;;;;;;;2.47;1.05;;;;;;;;;;5008426;28;20434;-77
2022/10/28 15:02:21;;;;;;;1.80;1.23;;;;;;;;;;5008569;28;20349;-74
2022/10/28 15:05:03;;;;;;;7.22;2.60;;;;;;;;;;5007806;28;20050;-75
2022/10/28 15:07:33;;;;;;;2.38;1.00;;;;;;;;;;5008079;28;20042;-74
2022/10/28 15:10:33;;;;;;;1.77;1.02;;;;;;;;;;5008010;28;20703;-73
2022/10/28 15:13:03;;;;;;;3.70;1.35;;;;;;;;;;5006485;28;20058;-74
2022/10/28 15:15:34;;;;;;;1.95;1.05;;;;;;;;;;5008072;28;20049;-78
2022/10/28 15:18:21;;;;;;;1.27;0.88;;;;;;;;;;5007947;28;20094;-75
2022/10/28 15:21:13;;;;;;;2.42;1.48;;;;;;;;;;4994354;28;20076;-74
2022/10/28 15:23:43;;;;;;;1.40;0.95;;;;;;;;;;5011864;28;20404;-75
2022/10/28 15:26:16;;;;;;;1.67;0.90;;;;;;;;;;5007411;28;20406;-74
2022/10/28 15:28:46;;;;;;;1.55;1.08;;;;;;;;;;5007684;28;20045;-74
2022/10/28 15:31:16;;;;;;;2.40;1.10;;;;;;;;;;5007061;28;20424;-76
2022/10/28 15:33:46;;;;;;;2.10;0.98;;;;;;;;;;5007362;28;20420;-74
2022/10/28 15:36:24;;;;;;;1.88;0.95;;;;;;;;;;5007200;28;20049;-73
2022/10/28 15:39:07;;;;;;;2.20;0.80;;;;;;;;;;5007375;28;20049;-74
2022/10/28 15:41:43;;;;;;;5.47;1.00;;;;;;;;;;5007345;28;20085;-75